createdAt,value
2023-12-22T00:05:45.330Z,4.45
2023-12-22T00:14:08.339Z,4.32
2023-12-22T00:22:31.859Z,4.28
2023-12-22T00:30:54.958Z,4.24
2023-12-22T00:39:17.841Z,4.17
2023-12-22T00:47:40.885Z,4.07
2023-12-22T00:56:04.171Z,3.99
2023-12-22T01:04:27.307Z,3.95
2023-12-22T01:12:50.359Z,3.94
2023-12-22T01:21:13.324Z,3.69
2023-12-22T01:29:36.301Z,3.37
2023-12-22T01:38:00.039Z,3.13
2023-12-22T01:46:23.428Z,2.99
2023-12-22T01:54:46.641Z,2.92
2023-12-22T02:03:09.921Z,2.85
2023-12-22T02:11:33.086Z,2.80
2023-12-22T02:19:58.038Z,2.80
2023-12-22T02:28:24.559Z,2.82
2023-12-22T02:36:50.254Z,2.86
2023-12-22T02:45:18.828Z,2.94
2023-12-22T02:53:41.977Z,3.04
2023-12-22T06:29:59.696Z,2.22
2023-12-22T06:38:22.730Z,2.20
2023-12-22T06:46:46.482Z,2.21
2023-12-22T06:55:09.779Z,2.20
2023-12-22T07:03:32.753Z,2.24
2023-12-22T07:11:57.186Z,2.38
2023-12-22T07:20:21.221Z,2.55
2023-12-22T07:28:44.602Z,2.69
2023-12-22T07:37:09.698Z,2.78
2023-12-22T07:45:33.476Z,2.78
2023-12-22T07:53:56.509Z,2.83
2023-12-22T08:02:19.635Z,2.84
2023-12-22T08:10:42.743Z,1.86
2023-12-22T08:19:05.895Z,0.81
2023-12-22T08:27:30.605Z,0.80
2023-12-22T08:35:54.644Z,0.91
2023-12-22T08:44:17.889Z,0.93
2023-12-22T08:52:41.695Z,1.06
2023-12-22T09:01:05.038Z,1.26
2023-12-22T09:09:28.927Z,1.50
2023-12-22T09:17:54.807Z,1.82
2023-12-22T09:26:19.177Z,2.17
2023-12-22T09:34:42.228Z,2.53
2023-12-22T09:43:07.460Z,2.78
2023-12-22T09:51:32.977Z,2.96
2023-12-22T09:59:58.676Z,3.15
2023-12-22T10:08:22.431Z,3.27
2023-12-22T10:16:45.386Z,3.46
2023-12-22T10:25:09.745Z,3.59
2023-12-22T10:33:33.737Z,3.75
2023-12-22T10:41:58.537Z,3.92
2023-12-22T10:50:21.912Z,4.08
2023-12-22T10:58:46.968Z,3.53
2023-12-22T11:07:11.793Z,2.87
2023-12-22T11:15:35.967Z,2.65
2023-12-22T11:24:00.656Z,2.49
2023-12-22T11:32:25.230Z,1.99
2023-12-22T11:40:54.456Z,0.87
2023-12-22T11:49:17.605Z,0.29
2023-12-22T11:57:41.988Z,0.02
2023-12-22T12:06:26.977Z,-0.17
2023-12-22T12:14:56.860Z,0.29
2023-12-22T12:23:20.100Z,1.07
2023-12-22T12:31:43.546Z,1.92
2023-12-22T12:40:09.780Z,1.94
2023-12-22T12:48:33.830Z,1.48
2023-12-22T12:56:57.068Z,1.64
2023-12-22T13:05:24.559Z,1.64
2023-12-22T13:13:49.733Z,1.22
2023-12-22T13:22:13.140Z,0.91
2023-12-22T13:30:37.593Z,0.85
2023-12-22T13:39:00.497Z,0.75
2023-12-22T13:47:26.365Z,0.55
2023-12-22T13:55:56.326Z,0.43
2023-12-22T14:04:19.328Z,0.28
2023-12-22T14:12:42.893Z,0.11
2023-12-22T14:21:06.612Z,0.04
2023-12-22T14:29:30.575Z,0.02
2023-12-22T14:37:53.966Z,0.04
2023-12-22T14:46:17.158Z,0.08
2023-12-22T14:54:41.347Z,0.12
2023-12-22T15:03:04.748Z,0.17
2023-12-22T15:11:28.509Z,0.23
2023-12-22T15:19:52.646Z,0.26
2023-12-22T15:28:16.945Z,0.22
2023-12-22T15:36:40.555Z,0.11
2023-12-22T15:45:05.022Z,0.01
2023-12-22T15:53:27.991Z,0.04
2023-12-22T16:01:52.230Z,0.04
2023-12-22T16:10:18.455Z,0.06
2023-12-22T16:18:44.587Z,0.06
2023-12-22T16:27:10.243Z,0.05
2023-12-22T16:35:34.025Z,-0.00
2023-12-22T16:43:58.109Z,0.01
2023-12-22T16:52:21.200Z,0.02
2023-12-22T17:01:02.763Z,0.06
2023-12-22T17:09:29.407Z,0.05
2023-12-22T17:17:53.972Z,0.03
2023-12-22T17:26:19.090Z,0.01
2023-12-22T17:34:43.775Z,-0.00
2023-12-22T17:43:07.761Z,-0.03
2023-12-22T17:51:34.160Z,-0.10
2023-12-22T17:59:58.954Z,-0.11
2023-12-22T18:08:24.652Z,-0.09
2023-12-22T18:16:47.752Z,-0.05
2023-12-22T18:25:18.417Z,-0.03
2023-12-22T18:33:47.918Z,-0.01
2023-12-22T18:42:12.054Z,0.02
2023-12-22T18:50:36.240Z,0.04
2023-12-22T18:59:00.664Z,0.08
2023-12-22T19:07:25.462Z,0.10
2023-12-22T19:15:51.276Z,0.11
2023-12-22T19:24:15.936Z,0.14
2023-12-22T19:32:40.344Z,0.20
2023-12-22T19:41:04.692Z,0.31
2023-12-22T19:49:29.962Z,0.42
2023-12-22T19:57:55.114Z,0.62
2023-12-22T20:06:19.088Z,0.81
2023-12-22T20:14:42.158Z,0.95
2023-12-22T20:23:09.957Z,1.12
2023-12-22T20:31:36.277Z,1.20
2023-12-22T20:40:00.969Z,1.29
2023-12-22T20:48:24.853Z,1.35
2023-12-22T20:56:49.225Z,1.42
2023-12-22T21:05:14.608Z,1.46
2023-12-22T21:13:39.052Z,1.48
2023-12-22T21:22:07.046Z,1.48
2023-12-22T21:30:33.417Z,1.50
2023-12-22T21:38:57.534Z,1.53
2023-12-22T21:47:21.880Z,1.54
2023-12-22T21:55:45.089Z,1.50
2023-12-22T22:04:08.160Z,1.46
2023-12-22T22:12:31.786Z,1.42
2023-12-22T22:20:55.193Z,1.33
2023-12-22T22:29:20.259Z,1.30
2023-12-22T22:37:47.279Z,1.32
2023-12-22T22:46:15.120Z,1.34
2023-12-22T22:54:38.835Z,1.37
2023-12-22T23:03:03.958Z,1.35
2023-12-22T23:11:29.748Z,1.30
2023-12-22T23:19:54.996Z,1.20
2023-12-22T23:28:19.539Z,1.15
2023-12-22T23:36:46.177Z,1.14
2023-12-22T23:45:11.133Z,1.14
2023-12-22T23:53:35.755Z,1.10
